Terminal Aerodrome Forecast
Issued by NWS

Home | Current Version | Previous Version | Text Only | Print | Product List | Glossary On
Versions: 1 2 3 4 5 6 7 8 9 10 11 12 13 14 15 16 17 18 19
000
FTUS46 KSEW 162111 AAA
TAFBLI
TAF AMD
KBLI 162111Z 1621/1718 17013G20KT P6SM SCT050 BKN080
     FM170200 17008KT P6SM BKN050
     FM170900 17005KT P6SM FEW020 BKN050
     FM171200 17005KT P6SM OVC015=

USA.gov is the U.S. government's official web portal to all federal, state and local government web resources and services.